CDT,Max TemperatureF,Mean TemperatureF,Min TemperatureF,Max Dew PointF,MeanDew PointF,Min DewpointF,Max Humidity, Mean Humidity, Min Humidity, Max Sea Level PressureIn, Mean Sea Level PressureIn, Min Sea Level PressureIn, Max VisibilityMiles, Mean VisibilityMiles, Min VisibilityMiles, Max Wind SpeedMPH, Mean Wind SpeedMPH, Max Gust SpeedMPH,PrecipitationIn, CloudCover, Events, WindDirDegrees
2012-10-1,84,70,57,66,59,53,100,71,34,29.87,29.82,29.78,10,10,10,15,7,22,0.00,0,,304
2012-10-2,84,73,62,67,61,54,100,73,35,29.97,29.90,29.85,10,10,5,13,3,16,0.00,0,,312
2012-10-3,87,72,57,65,61,58,100,74,38,30.05,30.00,29.95,10,10,7,12,2,16,0.00,1,,141
2012-10-4,88,77,66,75,70,63,100,81,55,30.13,30.09,30.03,10,10,10,16,7,21,0.00,2,,124
2012-10-5,88,78,67,76,69,65,100,80,49,30.12,30.06,29.99,10,10,5,12,4,16,0.00,1,,140
2012-10-6,89,76,62,76,69,63,100,82,49,30.03,29.99,29.93,10,8,2,13,2,18,0.00,2,,78
2012-10-7,72,64,57,70,55,51,99,74,54,30.17,30.11,30.03,10,10,7,16,11,23,0.00,6,,6
2012-10-8,70,64,57,63,53,49,100,73,57,30.21,30.15,30.09,10,10,10,12,7,17,0.00,7,,11
2012-10-9,85,74,62,73,66,59,100,79,56,30.11,30.03,29.97,10,10,10,13,5,18,0.00,5,,129
2012-10-10,92,80,69,81,73,69,100,86,54,30.10,30.05,29.98,10,8,2,17,6,26,0.00,2,,102
2012-10-11,88,80,72,81,75,72,100,88,62,30.15,30.10,30.06,10,10,4,15,7,20,0.02,4,Rain,111
2012-10-12,89,79,69,81,72,70,100,85,57,30.17,30.12,30.10,10,7,0,12,6,17,0.00,2,Fog,104
2012-10-13,88,80,71,79,73,71,100,84,56,30.11,30.04,29.97,10,10,10,20,8,26,0.00,3,,144
2012-10-14,89,81,71,78,73,70,100,82,55,30.08,30.01,29.95,10,10,7,16,7,21,0.00,3,,169
2012-10-15,87,76,64,74,64,56,100,75,35,30.07,30.02,29.95,10,10,5,12,4,16,0.00,1,,14
2012-10-16,83,72,60,70,64,59,100,86,56,29.99,29.89,29.81,10,10,7,13,3,17,0.17,3,Rain,55
2012-10-17,89,78,66,80,72,66,100,86,57,29.80,29.73,29.65,10,8,3,20,7,28,0.00,2,,166
2012-10-18,83,76,69,77,65,53,100,72,43,29.93,29.82,29.72,10,7,0,17,5,25,0.00,7,Fog,35
2012-10-19,88,72,56,57,49,32,100,57,14,30.03,29.96,29.92,10,10,7,9,5,,0.00,0,,30
2012-10-20,86,70,53,75,65,54,100,81,52,29.96,29.91,29.86,10,10,5,17,5,23,0.00,2,,140
2012-10-21,88,80,73,80,74,70,100,84,56,29.98,29.94,29.89,10,10,10,16,8,23,0.00,2,,142
2012-10-22,88,79,70,78,72,68,100,81,52,30.02,29.97,29.93,10,10,10,18,8,23,0.00,3,,129
2012-10-23,90,77,64,74,68,64,100,79,43,30.00,29.96,29.93,10,10,7,14,6,23,0.00,2,,122
2012-10-24,90,78,65,78,70,66,100,83,45,30.00,29.94,29.90,10,8,1,13,5,17,0.00,1,,111
2012-10-25,90,80,71,79,73,68,100,83,49,29.93,29.88,29.85,10,9,1,14,6,22,0.00,3,Rain,148
2012-10-26,72,64,55,72,59,50,100,84,60,30.17,30.04,29.92,10,8,0,24,9,31,0.00,7,Fog,351
2012-10-27,68,60,51,50,42,37,79,57,33,30.23,30.15,30.08,10,10,10,17,12,25,0.00,5,,349
2012-10-28,71,58,44,42,37,29,82,49,21,30.25,30.19,30.14,10,10,10,15,7,22,0.00,2,,360
2012-10-29,74,58,41,44,37,31,90,57,21,30.27,30.21,30.14,10,10,10,13,3,16,0.00,0,,38
2012-10-30,81,61,41,61,50,41,100,73,35,30.15,30.07,30.00,10,10,10,13,3,20,0.00,1,,147
2012-10-31,89,72,54,69,62,55,100,81,38,30.07,30.01,29.96,10,9,0,13,2,17,0.00,1,Fog,205